Madison Heights, VA (24572)

8:27 AM EDT on May 25, 2015 (GMT -0400)
Lakeview | | Change Station
CLOSE
Current Station
Personal Weather Station
Location: Madison Heights, VA
Elevation: 712 ft
Nearby Weather Stations

Elev 712 ft 37.43 °N, 79.11 °W | Updated 6 seconds ago

Clear
Clear
65.8 °F
Feels Like 65.8 °F
N
3.0
Wind Variable Wind from SW
Gusts 7.0 mph

Today
High -- | Low -- °F
--% Chance of Precip.
Yesterday
High -- | Low -- °F
Precip. -- in
6:00 AM 8:26 PM
Waxing Crescent, 48% visible
Pressure 30.32 in
Visibility 10.0 miles
Clouds Clear
Dew Point 60 °F
Humidity 80%
Rainfall 0.00 in
Snow Depth Not available.
UV 2 out of 12
Pollen 8.10 out of 12
Air Quality Not available.
Flu Activity No Activity
METAR KLYH 251154Z 20006KT 10SM CLR 17/14 A3033 RMK AO2 SLP265 T01670139 10167 20139 53008

More Conditions Fewer Conditions

Pressure 30.32 in
Visibility 10.0 miles
Clouds Clear
Dew Point 60 °F
Humidity 80%
Rainfall 0.00 in
Snow Depth Not available.
UV 2 out of 12
Pollen 8.10 out of 12
Air Quality Not available.
Flu Activity No Activity
METAR KLYH 251154Z 20006KT 10SM CLR 17/14 A3033 RMK AO2 SLP265 T01670139 10167 20139 53008

More Conditions Fewer Conditions

10-Day Weather Forecast

Almanac

Astronomy

May. 25, 2015 Rise Set
Actual Time
Civil Twilight
Nautical Twilight
Astronomical Twilight
Moon
Length of Visible Light
Length of Day
Tomorrow will be .
, % of the Moon is Illuminated

Today's Extremes

State Highs State Lows

Community

WunderPhotos

Upload Photos

1,823,987 photos uploaded!

WunderBlogs® & News

Nearby

Air Quality

  Air Quality AQ Index Pollutant
Not available.

Snow Depth

Station Depth Elevation

Earthquake Activity

City Distance Mag. Time & Date
Minimum magnitude displayed is 2.5.

Coastal Water Temperatures

Place Temperature

Stations

Nearby Weather Stations

Station Location Temp. Windchill Dew Point Humidity Wind Precip. Elev Updated Type